sensor_id;sensor_type;location;lat;lon;timestamp;temperature;humidity
41720;DHT22;27405;53.316;-6.294;2023-09-18T00:02:26;15.40;99.90
41720;DHT22;27405;53.316;-6.294;2023-09-18T00:04:52;15.40;99.90
41720;DHT22;27405;53.316;-6.294;2023-09-18T00:07:18;15.30;99.90
41720;DHT22;27405;53.316;-6.294;2023-09-18T00:09:44;15.30;99.90
41720;DHT22;27405;53.316;-6.294;2023-09-18T00:12:09;15.30;99.90
41720;DHT22;27405;53.316;-6.294;2023-09-18T00:14:36;15.30;99.90
41720;DHT22;27405;53.316;-6.294;2023-09-18T00:17:02;15.30;99.90
41720;DHT22;27405;53.316;-6.294;2023-09-18T00:19:28;15.30;99.90
41720;DHT22;27405;53.316;-6.294;2023-09-18T00:21:55;15.30;99.90
41720;DHT22;27405;53.316;-6.294;2023-09-18T00:24:21;15.30;99.90
41720;DHT22;27405;53.316;-6.294;2023-09-18T00:26:48;15.30;99.90
41720;DHT22;27405;53.316;-6.294;2023-09-18T00:29:14;15.30;99.90
41720;DHT22;27405;53.316;-6.294;2023-09-18T00:31:40;15.20;99.90
41720;DHT22;27405;53.316;-6.294;2023-09-18T00:34:05;15.20;99.90
41720;DHT22;27405;53.316;-6.294;2023-09-18T00:36:31;15.20;99.90
41720;DHT22;27405;53.316;-6.294;2023-09-18T00:38:57;15.20;99.90
41720;DHT22;27405;53.316;-6.294;2023-09-18T00:41:22;15.20;99.90
41720;DHT22;27405;53.316;-6.294;2023-09-18T00:43:48;15.20;99.90
41720;DHT22;27405;53.316;-6.294;2023-09-18T00:46:14;15.20;99.90
41720;DHT22;27405;53.316;-6.294;2023-09-18T00:48:40;15.20;99.90
41720;DHT22;27405;53.316;-6.294;2023-09-18T00:51:06;15.20;99.90
41720;DHT22;27405;53.316;-6.294;2023-09-18T00:53:33;15.20;99.90
41720;DHT22;27405;53.316;-6.294;2023-09-18T00:56:00;15.20;99.90
41720;DHT22;27405;53.316;-6.294;2023-09-18T00:58:26;15.20;99.90
41720;DHT22;27405;53.316;-6.294;2023-09-18T01:00:52;15.20;99.90
41720;DHT22;27405;53.316;-6.294;2023-09-18T01:03:20;15.20;99.90
41720;DHT22;27405;53.316;-6.294;2023-09-18T01:05:46;15.20;99.90
41720;DHT22;27405;53.316;-6.294;2023-09-18T01:08:12;15.20;99.90
41720;DHT22;27405;53.316;-6.294;2023-09-18T01:16:39;15.10;99.90
41720;DHT22;27405;53.316;-6.294;2023-09-18T01:19:09;15.10;99.90
41720;DHT22;27405;53.316;-6.294;2023-09-18T01:21:35;15.10;99.90
41720;DHT22;27405;53.316;-6.294;2023-09-18T01:24:01;15.10;99.90
41720;DHT22;27405;53.316;-6.294;2023-09-18T01:26:26;15.10;99.90
41720;DHT22;27405;53.316;-6.294;2023-09-18T01:28:52;15.00;99.90
41720;DHT22;27405;53.316;-6.294;2023-09-18T01:31:18;15.00;99.90
41720;DHT22;27405;53.316;-6.294;2023-09-18T01:33:45;15.00;99.90
41720;DHT22;27405;53.316;-6.294;2023-09-18T01:36:13;15.00;99.90
41720;DHT22;27405;53.316;-6.294;2023-09-18T01:38:40;15.00;99.90
41720;DHT22;27405;53.316;-6.294;2023-09-18T01:41:06;15.00;99.90
41720;DHT22;27405;53.316;-6.294;2023-09-18T01:43:32;15.00;99.90
41720;DHT22;27405;53.316;-6.294;2023-09-18T01:45:58;15.00;99.90
41720;DHT22;27405;53.316;-6.294;2023-09-18T01:48:24;15.00;99.90
41720;DHT22;27405;53.316;-6.294;2023-09-18T01:50:50;14.90;99.90
41720;DHT22;27405;53.316;-6.294;2023-09-18T01:53:15;14.90;99.90
41720;DHT22;27405;53.316;-6.294;2023-09-18T01:55:44;14.90;99.90
41720;DHT22;27405;53.316;-6.294;2023-09-18T01:58:09;14.90;99.90
41720;DHT22;27405;53.316;-6.294;2023-09-18T02:00:35;14.90;99.90
41720;DHT22;27405;53.316;-6.294;2023-09-18T02:03:01;14.90;99.90
41720;DHT22;27405;53.316;-6.294;2023-09-18T02:05:27;14.90;99.90
41720;DHT22;27405;53.316;-6.294;2023-09-18T02:07:52;14.90;99.90
41720;DHT22;27405;53.316;-6.294;2023-09-18T02:10:18;14.90;99.90
41720;DHT22;27405;53.316;-6.294;2023-09-18T02:12:44;14.90;99.90
41720;DHT22;27405;53.316;-6.294;2023-09-18T02:15:10;14.90;99.90
41720;DHT22;27405;53.316;-6.294;2023-09-18T02:17:36;14.90;99.90
41720;DHT22;27405;53.316;-6.294;2023-09-18T02:20:03;14.90;99.90
41720;DHT22;27405;53.316;-6.294;2023-09-18T02:22:36;14.90;99.90
41720;DHT22;27405;53.316;-6.294;2023-09-18T02:25:01;14.90;99.90
41720;DHT22;27405;53.316;-6.294;2023-09-18T02:27:27;14.90;99.90
41720;DHT22;27405;53.316;-6.294;2023-09-18T02:29:53;14.90;99.90
41720;DHT22;27405;53.316;-6.294;2023-09-18T02:32:19;14.90;99.90
41720;DHT22;27405;53.316;-6.294;2023-09-18T02:34:44;14.90;99.90
41720;DHT22;27405;53.316;-6.294;2023-09-18T02:37:10;14.90;99.90
41720;DHT22;27405;53.316;-6.294;2023-09-18T02:39:36;15.00;99.90
41720;DHT22;27405;53.316;-6.294;2023-09-18T02:42:02;14.90;99.90
41720;DHT22;27405;53.316;-6.294;2023-09-18T02:44:27;15.00;99.90
41720;DHT22;27405;53.316;-6.294;2023-09-18T02:46:53;14.90;99.90
41720;DHT22;27405;53.316;-6.294;2023-09-18T02:49:19;14.90;99.90
41720;DHT22;27405;53.316;-6.294;2023-09-18T02:51:46;15.00;99.90
41720;DHT22;27405;53.316;-6.294;2023-09-18T02:54:11;15.00;99.90
41720;DHT22;27405;53.316;-6.294;2023-09-18T02:56:37;15.00;99.90
41720;DHT22;27405;53.316;-6.294;2023-09-18T02:59:04;15.00;99.90
41720;DHT22;27405;53.316;-6.294;2023-09-18T03:01:29;15.00;99.90
41720;DHT22;27405;53.316;-6.294;2023-09-18T03:03:55;15.00;99.90
41720;DHT22;27405;53.316;-6.294;2023-09-18T03:06:21;15.00;99.90
41720;DHT22;27405;53.316;-6.294;2023-09-18T03:08:47;15.00;99.90
41720;DHT22;27405;53.316;-6.294;2023-09-18T03:11:13;15.00;99.90
41720;DHT22;27405;53.316;-6.294;2023-09-18T03:13:44;15.00;99.90
41720;DHT22;27405;53.316;-6.294;2023-09-18T03:16:11;15.00;99.90
41720;DHT22;27405;53.316;-6.294;2023-09-18T03:18:38;15.00;99.90
41720;DHT22;27405;53.316;-6.294;2023-09-18T03:21:03;15.00;99.90
41720;DHT22;27405;53.316;-6.294;2023-09-18T03:23:29;15.00;99.90
41720;DHT22;27405;53.316;-6.294;2023-09-18T03:25:55;15.00;99.90
41720;DHT22;27405;53.316;-6.294;2023-09-18T03:28:21;15.00;99.90
41720;DHT22;27405;53.316;-6.294;2023-09-18T03:30:47;14.90;99.90
41720;DHT22;27405;53.316;-6.294;2023-09-18T03:35:51;14.90;99.90
41720;DHT22;27405;53.316;-6.294;2023-09-18T03:38:19;14.90;99.90
41720;DHT22;27405;53.316;-6.294;2023-09-18T03:40:46;14.90;99.90
41720;DHT22;27405;53.316;-6.294;2023-09-18T03:43:12;14.90;99.90
41720;DHT22;27405;53.316;-6.294;2023-09-18T03:45:38;14.90;99.90
41720;DHT22;27405;53.316;-6.294;2023-09-18T03:48:06;14.90;99.90
41720;DHT22;27405;53.316;-6.294;2023-09-18T03:50:32;14.80;99.90
41720;DHT22;27405;53.316;-6.294;2023-09-18T03:52:58;14.80;99.90
41720;DHT22;27405;53.316;-6.294;2023-09-18T03:55:23;14.80;99.90
41720;DHT22;27405;53.316;-6.294;2023-09-18T03:57:49;14.70;99.90
41720;DHT22;27405;53.316;-6.294;2023-09-18T04:00:15;14.80;99.90
41720;DHT22;27405;53.316;-6.294;2023-09-18T04:02:41;14.70;99.90
41720;DHT22;27405;53.316;-6.294;2023-09-18T04:05:07;14.70;99.90
41720;DHT22;27405;53.316;-6.294;2023-09-18T04:07:33;14.70;99.90
41720;DHT22;27405;53.316;-6.294;2023-09-18T04:09:59;14.70;99.90
41720;DHT22;27405;53.316;-6.294;2023-09-18T04:12:25;14.60;99.90
41720;DHT22;27405;53.316;-6.294;2023-09-18T04:14:51;14.60;99.90
41720;DHT22;27405;53.316;-6.294;2023-09-18T04:17:16;14.60;99.90
41720;DHT22;27405;53.316;-6.294;2023-09-18T04:19:42;14.60;99.90
41720;DHT22;27405;53.316;-6.294;2023-09-18T04:22:08;14.60;99.90
41720;DHT22;27405;53.316;-6.294;2023-09-18T04:24:34;14.50;99.90
41720;DHT22;27405;53.316;-6.294;2023-09-18T04:27:00;14.50;99.90
41720;DHT22;27405;53.316;-6.294;2023-09-18T04:29:26;14.40;99.90
41720;DHT22;27405;53.316;-6.294;2023-09-18T04:31:52;14.30;99.90
41720;DHT22;27405;53.316;-6.294;2023-09-18T04:34:19;14.30;99.90
41720;DHT22;27405;53.316;-6.294;2023-09-18T04:36:45;14.20;99.90
41720;DHT22;27405;53.316;-6.294;2023-09-18T04:39:11;14.10;99.90
41720;DHT22;27405;53.316;-6.294;2023-09-18T04:41:37;14.10;99.90
41720;DHT22;27405;53.316;-6.294;2023-09-18T04:44:03;14.00;99.90
41720;DHT22;27405;53.316;-6.294;2023-09-18T04:46:30;13.90;99.90
41720;DHT22;27405;53.316;-6.294;2023-09-18T04:48:56;13.90;99.90
41720;DHT22;27405;53.316;-6.294;2023-09-18T04:51:21;13.90;99.90
41720;DHT22;27405;53.316;-6.294;2023-09-18T04:53:47;13.80;99.90
41720;DHT22;27405;53.316;-6.294;2023-09-18T04:56:13;13.80;99.90
41720;DHT22;27405;53.316;-6.294;2023-09-18T04:58:39;13.80;99.90
41720;DHT22;27405;53.316;-6.294;2023-09-18T05:01:05;13.70;99.90
41720;DHT22;27405;53.316;-6.294;2023-09-18T05:03:34;13.70;99.90
41720;DHT22;27405;53.316;-6.294;2023-09-18T05:06:00;13.70;99.90
41720;DHT22;27405;53.316;-6.294;2023-09-18T05:08:26;13.60;99.90
41720;DHT22;27405;53.316;-6.294;2023-09-18T05:10:51;13.60;99.90
41720;DHT22;27405;53.316;-6.294;2023-09-18T05:13:17;13.60;99.90
41720;DHT22;27405;53.316;-6.294;2023-09-18T05:15:43;13.50;99.90
41720;DHT22;27405;53.316;-6.294;2023-09-18T05:18:08;13.50;99.90
41720;DHT22;27405;53.316;-6.294;2023-09-18T05:20:34;13.40;99.90
41720;DHT22;27405;53.316;-6.294;2023-09-18T05:23:00;13.40;99.90
41720;DHT22;27405;53.316;-6.294;2023-09-18T05:25:29;13.40;99.90
41720;DHT22;27405;53.316;-6.294;2023-09-18T05:27:58;13.40;99.90
41720;DHT22;27405;53.316;-6.294;2023-09-18T05:30:26;13.30;99.90
41720;DHT22;27405;53.316;-6.294;2023-09-18T05:32:54;13.40;99.90
41720;DHT22;27405;53.316;-6.294;2023-09-18T05:35:19;13.30;99.90
41720;DHT22;27405;53.316;-6.294;2023-09-18T05:37:46;13.30;99.90
41720;DHT22;27405;53.316;-6.294;2023-09-18T05:40:13;13.30;99.90
41720;DHT22;27405;53.316;-6.294;2023-09-18T05:42:41;13.30;99.90
41720;DHT22;27405;53.316;-6.294;2023-09-18T05:45:12;13.30;99.90
41720;DHT22;27405;53.316;-6.294;2023-09-18T05:47:38;13.30;99.90
41720;DHT22;27405;53.316;-6.294;2023-09-18T05:50:08;13.30;99.90
41720;DHT22;27405;53.316;-6.294;2023-09-18T05:52:35;13.30;99.90
41720;DHT22;27405;53.316;-6.294;2023-09-18T05:55:02;13.30;99.90
41720;DHT22;27405;53.316;-6.294;2023-09-18T05:57:28;13.30;99.90
41720;DHT22;27405;53.316;-6.294;2023-09-18T05:59:55;13.20;99.90
41720;DHT22;27405;53.316;-6.294;2023-09-18T06:02:21;13.20;99.90
41720;DHT22;27405;53.316;-6.294;2023-09-18T06:04:48;13.20;99.90
41720;DHT22;27405;53.316;-6.294;2023-09-18T06:07:14;13.20;99.90
41720;DHT22;27405;53.316;-6.294;2023-09-18T06:09:40;13.10;99.90
41720;DHT22;27405;53.316;-6.294;2023-09-18T06:12:06;13.10;99.90
41720;DHT22;27405;53.316;-6.294;2023-09-18T06:14:32;13.10;99.90
41720;DHT22;27405;53.316;-6.294;2023-09-18T06:17:03;13.10;99.90
41720;DHT22;27405;53.316;-6.294;2023-09-18T06:19:29;13.10;99.90
41720;DHT22;27405;53.316;-6.294;2023-09-18T06:21:55;13.10;99.90
41720;DHT22;27405;53.316;-6.294;2023-09-18T06:24:21;13.10;99.90
41720;DHT22;27405;53.316;-6.294;2023-09-18T06:26:46;13.10;99.90
41720;DHT22;27405;53.316;-6.294;2023-09-18T06:29:12;13.10;99.90
41720;DHT22;27405;53.316;-6.294;2023-09-18T06:31:38;13.10;99.90
41720;DHT22;27405;53.316;-6.294;2023-09-18T06:34:04;13.10;99.90
41720;DHT22;27405;53.316;-6.294;2023-09-18T06:36:30;13.10;99.90
41720;DHT22;27405;53.316;-6.294;2023-09-18T06:38:56;13.10;99.90
41720;DHT22;27405;53.316;-6.294;2023-09-18T06:41:21;13.10;99.90
41720;DHT22;27405;53.316;-6.294;2023-09-18T06:43:47;13.10;99.90
41720;DHT22;27405;53.316;-6.294;2023-09-18T06:46:13;13.10;99.90
41720;DHT22;27405;53.316;-6.294;2023-09-18T06:48:39;13.10;99.90
41720;DHT22;27405;53.316;-6.294;2023-09-18T06:51:04;13.00;99.90
41720;DHT22;27405;53.316;-6.294;2023-09-18T06:53:31;13.00;99.90
41720;DHT22;27405;53.316;-6.294;2023-09-18T06:55:57;13.00;99.90
41720;DHT22;27405;53.316;-6.294;2023-09-18T06:58:23;13.00;99.90
41720;DHT22;27405;53.316;-6.294;2023-09-18T07:00:48;13.00;99.90
41720;DHT22;27405;53.316;-6.294;2023-09-18T07:03:16;12.90;99.90
41720;DHT22;27405;53.316;-6.294;2023-09-18T07:05:43;13.00;99.90
41720;DHT22;27405;53.316;-6.294;2023-09-18T07:08:10;12.90;99.90
41720;DHT22;27405;53.316;-6.294;2023-09-18T07:10:38;12.90;99.90
41720;DHT22;27405;53.316;-6.294;2023-09-18T07:13:04;12.90;99.90
41720;DHT22;27405;53.316;-6.294;2023-09-18T07:15:29;13.00;99.90
41720;DHT22;27405;53.316;-6.294;2023-09-18T07:17:55;12.90;99.90
41720;DHT22;27405;53.316;-6.294;2023-09-18T07:20:21;12.90;99.90
41720;DHT22;27405;53.316;-6.294;2023-09-18T07:22:48;12.90;99.90
41720;DHT22;27405;53.316;-6.294;2023-09-18T07:25:14;12.90;99.90
41720;DHT22;27405;53.316;-6.294;2023-09-18T07:27:40;12.90;99.90
41720;DHT22;27405;53.316;-6.294;2023-09-18T07:30:14;12.90;99.90
41720;DHT22;27405;53.316;-6.294;2023-09-18T07:32:44;12.90;99.90
41720;DHT22;27405;53.316;-6.294;2023-09-18T07:35:11;12.90;99.90
41720;DHT22;27405;53.316;-6.294;2023-09-18T07:37:40;12.90;99.90
41720;DHT22;27405;53.316;-6.294;2023-09-18T07:40:06;12.90;99.90
41720;DHT22;27405;53.316;-6.294;2023-09-18T07:42:32;13.00;99.90
41720;DHT22;27405;53.316;-6.294;2023-09-18T07:44:58;13.00;99.90
41720;DHT22;27405;53.316;-6.294;2023-09-18T07:47:24;13.10;99.90
41720;DHT22;27405;53.316;-6.294;2023-09-18T07:49:50;13.10;99.90
41720;DHT22;27405;53.316;-6.294;2023-09-18T07:52:16;13.20;99.90
41720;DHT22;27405;53.316;-6.294;2023-09-18T07:54:43;13.10;99.90
41720;DHT22;27405;53.316;-6.294;2023-09-18T07:57:09;13.00;99.90
41720;DHT22;27405;53.316;-6.294;2023-09-18T07:59:36;13.00;99.90
41720;DHT22;27405;53.316;-6.294;2023-09-18T08:02:02;13.00;99.90
41720;DHT22;27405;53.316;-6.294;2023-09-18T08:04:27;13.00;99.90
41720;DHT22;27405;53.316;-6.294;2023-09-18T08:06:56;13.00;99.90
41720;DHT22;27405;53.316;-6.294;2023-09-18T08:09:21;12.90;99.90
41720;DHT22;27405;53.316;-6.294;2023-09-18T08:11:47;13.00;99.90
41720;DHT22;27405;53.316;-6.294;2023-09-18T08:14:15;13.00;99.90
41720;DHT22;27405;53.316;-6.294;2023-09-18T08:16:42;13.10;99.90
41720;DHT22;27405;53.316;-6.294;2023-09-18T08:19:08;13.00;99.90
41720;DHT22;27405;53.316;-6.294;2023-09-18T08:21:35;13.10;99.90
41720;DHT22;27405;53.316;-6.294;2023-09-18T08:24:01;13.10;99.90
41720;DHT22;27405;53.316;-6.294;2023-09-18T08:26:26;13.10;99.90
41720;DHT22;27405;53.316;-6.294;2023-09-18T08:28:53;13.10;99.90
41720;DHT22;27405;53.316;-6.294;2023-09-18T08:31:19;13.10;99.90
41720;DHT22;27405;53.316;-6.294;2023-09-18T08:33:45;13.10;99.90
41720;DHT22;27405;53.316;-6.294;2023-09-18T08:36:11;13.10;99.90
41720;DHT22;27405;53.316;-6.294;2023-09-18T08:38:38;13.20;99.90
41720;DHT22;27405;53.316;-6.294;2023-09-18T08:41:03;13.20;99.90
41720;DHT22;27405;53.316;-6.294;2023-09-18T08:43:32;13.20;99.90
41720;DHT22;27405;53.316;-6.294;2023-09-18T08:45:59;13.30;99.90
41720;DHT22;27405;53.316;-6.294;2023-09-18T08:48:28;13.30;99.90
41720;DHT22;27405;53.316;-6.294;2023-09-18T08:51:04;13.30;99.90
41720;DHT22;27405;53.316;-6.294;2023-09-18T08:53:35;13.30;99.90
41720;DHT22;27405;53.316;-6.294;2023-09-18T08:56:02;13.30;99.90
41720;DHT22;27405;53.316;-6.294;2023-09-18T08:58:33;13.30;99.90
41720;DHT22;27405;53.316;-6.294;2023-09-18T09:01:02;13.40;99.90
41720;DHT22;27405;53.316;-6.294;2023-09-18T09:03:29;13.40;99.90
41720;DHT22;27405;53.316;-6.294;2023-09-18T09:05:56;13.40;99.90
41720;DHT22;27405;53.316;-6.294;2023-09-18T09:08:22;13.50;99.90
41720;DHT22;27405;53.316;-6.294;2023-09-18T09:10:48;13.50;99.90
41720;DHT22;27405;53.316;-6.294;2023-09-18T09:13:14;13.50;99.90
41720;DHT22;27405;53.316;-6.294;2023-09-18T09:15:47;13.50;99.90
41720;DHT22;27405;53.316;-6.294;2023-09-18T09:18:15;13.50;99.90
41720;DHT22;27405;53.316;-6.294;2023-09-18T09:20:44;13.60;99.90
41720;DHT22;27405;53.316;-6.294;2023-09-18T09:23:18;13.60;99.90
41720;DHT22;27405;53.316;-6.294;2023-09-18T09:25:44;13.60;99.90
41720;DHT22;27405;53.316;-6.294;2023-09-18T09:28:10;13.70;99.90
41720;DHT22;27405;53.316;-6.294;2023-09-18T09:30:36;13.70;99.90
41720;DHT22;27405;53.316;-6.294;2023-09-18T09:33:04;13.70;99.90
41720;DHT22;27405;53.316;-6.294;2023-09-18T09:35:32;13.80;99.90
41720;DHT22;27405;53.316;-6.294;2023-09-18T09:37:59;13.80;99.90
41720;DHT22;27405;53.316;-6.294;2023-09-18T09:40:29;13.80;99.90
41720;DHT22;27405;53.316;-6.294;2023-09-18T09:42:57;13.90;99.90
41720;DHT22;27405;53.316;-6.294;2023-09-18T09:45:28;13.90;99.90
41720;DHT22;27405;53.316;-6.294;2023-09-18T09:47:55;14.00;99.90
41720;DHT22;27405;53.316;-6.294;2023-09-18T09:50:21;14.00;99.90
41720;DHT22;27405;53.316;-6.294;2023-09-18T09:52:48;14.10;99.90
41720;DHT22;27405;53.316;-6.294;2023-09-18T09:58:08;14.20;99.90
41720;DHT22;27405;53.316;-6.294;2023-09-18T10:03:12;14.30;99.90
41720;DHT22;27405;53.316;-6.294;2023-09-18T10:05:43;14.30;99.90
41720;DHT22;27405;53.316;-6.294;2023-09-18T10:08:25;14.30;99.90
41720;DHT22;27405;53.316;-6.294;2023-09-18T10:10:53;14.40;99.90
41720;DHT22;27405;53.316;-6.294;2023-09-18T10:16:12;14.40;99.90
41720;DHT22;27405;53.316;-6.294;2023-09-18T10:21:53;14.40;99.90
41720;DHT22;27405;53.316;-6.294;2023-09-18T10:24:24;14.50;99.90
41720;DHT22;27405;53.316;-6.294;2023-09-18T10:26:58;14.50;99.90
41720;DHT22;27405;53.316;-6.294;2023-09-18T10:29:25;14.50;99.90
41720;DHT22;27405;53.316;-6.294;2023-09-18T10:31:52;14.60;99.90
41720;DHT22;27405;53.316;-6.294;2023-09-18T10:34:19;14.60;99.90
41720;DHT22;27405;53.316;-6.294;2023-09-18T10:36:52;14.60;99.90
41720;DHT22;27405;53.316;-6.294;2023-09-18T10:39:20;14.60;99.90
41720;DHT22;27405;53.316;-6.294;2023-09-18T10:41:52;14.60;99.90
41720;DHT22;27405;53.316;-6.294;2023-09-18T10:44:18;14.50;99.90
41720;DHT22;27405;53.316;-6.294;2023-09-18T10:46:48;14.40;99.90
41720;DHT22;27405;53.316;-6.294;2023-09-18T10:49:18;14.40;99.90
41720;DHT22;27405;53.316;-6.294;2023-09-18T10:51:46;14.30;99.90
41720;DHT22;27405;53.316;-6.294;2023-09-18T10:54:16;14.30;99.90
41720;DHT22;27405;53.316;-6.294;2023-09-18T10:56:42;14.30;99.90
41720;DHT22;27405;53.316;-6.294;2023-09-18T10:59:08;14.40;99.90
41720;DHT22;27405;53.316;-6.294;2023-09-18T11:01:37;14.50;99.90
41720;DHT22;27405;53.316;-6.294;2023-09-18T11:04:07;14.50;99.90
41720;DHT22;27405;53.316;-6.294;2023-09-18T11:09:26;14.70;99.90
41720;DHT22;27405;53.316;-6.294;2023-09-18T11:12:16;14.90;99.90
41720;DHT22;27405;53.316;-6.294;2023-09-18T11:17:36;15.00;99.90
41720;DHT22;27405;53.316;-6.294;2023-09-18T11:22:38;15.10;99.90
41720;DHT22;27405;53.316;-6.294;2023-09-18T11:25:29;15.10;99.90
41720;DHT22;27405;53.316;-6.294;2023-09-18T11:28:00;15.20;99.90
41720;DHT22;27405;53.316;-6.294;2023-09-18T11:30:27;15.20;99.90
41720;DHT22;27405;53.316;-6.294;2023-09-18T11:32:54;15.30;99.90
41720;DHT22;27405;53.316;-6.294;2023-09-18T11:35:21;15.40;99.90
41720;DHT22;27405;53.316;-6.294;2023-09-18T11:37:47;15.40;99.90
41720;DHT22;27405;53.316;-6.294;2023-09-18T11:40:32;15.30;99.90
41720;DHT22;27405;53.316;-6.294;2023-09-18T11:45:53;15.40;99.90
41720;DHT22;27405;53.316;-6.294;2023-09-18T11:48:23;15.40;99.90
41720;DHT22;27405;53.316;-6.294;2023-09-18T11:50:53;15.50;99.90
41720;DHT22;27405;53.316;-6.294;2023-09-18T11:53:20;15.50;99.90
41720;DHT22;27405;53.316;-6.294;2023-09-18T11:55:47;15.50;99.90
41720;DHT22;27405;53.316;-6.294;2023-09-18T11:58:13;15.60;99.90
41720;DHT22;27405;53.316;-6.294;2023-09-18T12:00:39;15.60;99.90
41720;DHT22;27405;53.316;-6.294;2023-09-18T12:03:23;15.70;99.90
41720;DHT22;27405;53.316;-6.294;2023-09-18T12:06:02;15.80;99.90
41720;DHT22;27405;53.316;-6.294;2023-09-18T12:08:31;15.90;99.90
41720;DHT22;27405;53.316;-6.294;2023-09-18T12:10:58;16.00;99.90
41720;DHT22;27405;53.316;-6.294;2023-09-18T12:13:27;16.10;99.90
41720;DHT22;27405;53.316;-6.294;2023-09-18T12:16:00;16.20;99.90
41720;DHT22;27405;53.316;-6.294;2023-09-18T12:18:27;16.30;99.90
41720;DHT22;27405;53.316;-6.294;2023-09-18T12:20:57;16.40;99.90
41720;DHT22;27405;53.316;-6.294;2023-09-18T12:23:24;16.30;99.90
41720;DHT22;27405;53.316;-6.294;2023-09-18T12:25:57;16.20;99.90
41720;DHT22;27405;53.316;-6.294;2023-09-18T12:28:25;16.20;99.90
41720;DHT22;27405;53.316;-6.294;2023-09-18T12:30:54;16.20;99.90
41720;DHT22;27405;53.316;-6.294;2023-09-18T12:33:22;16.20;99.90
41720;DHT22;27405;53.316;-6.294;2023-09-18T12:35:49;16.20;99.90
41720;DHT22;27405;53.316;-6.294;2023-09-18T12:38:19;16.10;99.90
41720;DHT22;27405;53.316;-6.294;2023-09-18T12:40:53;16.00;99.90
41720;DHT22;27405;53.316;-6.294;2023-09-18T12:43:21;16.00;99.90
41720;DHT22;27405;53.316;-6.294;2023-09-18T12:45:52;16.00;99.90
41720;DHT22;27405;53.316;-6.294;2023-09-18T12:48:18;16.00;99.90
41720;DHT22;27405;53.316;-6.294;2023-09-18T12:50:44;15.90;99.90
41720;DHT22;27405;53.316;-6.294;2023-09-18T12:53:12;16.00;99.90
41720;DHT22;27405;53.316;-6.294;2023-09-18T12:55:38;15.90;99.90
41720;DHT22;27405;53.316;-6.294;2023-09-18T12:58:04;15.90;99.90
41720;DHT22;27405;53.316;-6.294;2023-09-18T13:00:34;16.00;99.90
41720;DHT22;27405;53.316;-6.294;2023-09-18T13:03:00;16.00;99.90
41720;DHT22;27405;53.316;-6.294;2023-09-18T13:05:26;16.00;99.90
41720;DHT22;27405;53.316;-6.294;2023-09-18T13:07:55;16.00;99.90
41720;DHT22;27405;53.316;-6.294;2023-09-18T13:10:21;16.00;99.90
41720;DHT22;27405;53.316;-6.294;2023-09-18T13:12:51;15.90;99.90
41720;DHT22;27405;53.316;-6.294;2023-09-18T13:17:53;15.80;99.90
41720;DHT22;27405;53.316;-6.294;2023-09-18T13:20:27;15.80;99.90
41720;DHT22;27405;53.316;-6.294;2023-09-18T13:22:55;15.80;99.90
41720;DHT22;27405;53.316;-6.294;2023-09-18T13:25:29;15.70;99.90
41720;DHT22;27405;53.316;-6.294;2023-09-18T13:27:55;15.70;99.90
41720;DHT22;27405;53.316;-6.294;2023-09-18T13:30:21;15.70;99.90
41720;DHT22;27405;53.316;-6.294;2023-09-18T13:32:48;15.70;99.90
41720;DHT22;27405;53.316;-6.294;2023-09-18T13:35:18;15.70;99.90
41720;DHT22;27405;53.316;-6.294;2023-09-18T13:37:45;15.70;99.90
41720;DHT22;27405;53.316;-6.294;2023-09-18T13:40:11;15.70;99.90
41720;DHT22;27405;53.316;-6.294;2023-09-18T13:42:40;15.70;99.90
41720;DHT22;27405;53.316;-6.294;2023-09-18T13:45:06;15.60;99.90
41720;DHT22;27405;53.316;-6.294;2023-09-18T13:47:33;15.60;99.90
41720;DHT22;27405;53.316;-6.294;2023-09-18T13:50:00;15.60;99.90
41720;DHT22;27405;53.316;-6.294;2023-09-18T13:52:27;15.70;99.90
41720;DHT22;27405;53.316;-6.294;2023-09-18T13:54:53;15.80;99.90
41720;DHT22;27405;53.316;-6.294;2023-09-18T13:57:19;15.90;99.90
41720;DHT22;27405;53.316;-6.294;2023-09-18T13:59:46;15.90;99.90
41720;DHT22;27405;53.316;-6.294;2023-09-18T14:02:16;16.00;99.90
41720;DHT22;27405;53.316;-6.294;2023-09-18T14:04:42;16.00;99.90
41720;DHT22;27405;53.316;-6.294;2023-09-18T14:07:09;15.90;99.90
41720;DHT22;27405;53.316;-6.294;2023-09-18T14:09:35;15.90;99.90
41720;DHT22;27405;53.316;-6.294;2023-09-18T14:12:01;15.90;99.90
41720;DHT22;27405;53.316;-6.294;2023-09-18T14:14:28;15.80;99.90
41720;DHT22;27405;53.316;-6.294;2023-09-18T14:16:54;15.70;99.90
41720;DHT22;27405;53.316;-6.294;2023-09-18T14:19:21;15.70;99.90
41720;DHT22;27405;53.316;-6.294;2023-09-18T14:21:47;15.60;99.90
41720;DHT22;27405;53.316;-6.294;2023-09-18T14:24:15;15.60;99.90
41720;DHT22;27405;53.316;-6.294;2023-09-18T14:26:43;15.60;99.90
41720;DHT22;27405;53.316;-6.294;2023-09-18T14:29:12;15.50;99.90
41720;DHT22;27405;53.316;-6.294;2023-09-18T14:31:39;15.50;99.90
41720;DHT22;27405;53.316;-6.294;2023-09-18T14:34:05;15.50;99.90
41720;DHT22;27405;53.316;-6.294;2023-09-18T14:36:34;15.50;99.90
41720;DHT22;27405;53.316;-6.294;2023-09-18T14:39:04;15.50;99.90
41720;DHT22;27405;53.316;-6.294;2023-09-18T14:41:33;15.50;99.90
41720;DHT22;27405;53.316;-6.294;2023-09-18T14:43:59;15.50;99.90
41720;DHT22;27405;53.316;-6.294;2023-09-18T14:46:25;15.50;99.90
41720;DHT22;27405;53.316;-6.294;2023-09-18T14:48:51;15.50;99.90
41720;DHT22;27405;53.316;-6.294;2023-09-18T14:51:16;15.50;99.90
41720;DHT22;27405;53.316;-6.294;2023-09-18T14:53:43;15.50;99.90
41720;DHT22;27405;53.316;-6.294;2023-09-18T14:56:09;15.50;99.90
41720;DHT22;27405;53.316;-6.294;2023-09-18T14:58:34;15.50;99.90
41720;DHT22;27405;53.316;-6.294;2023-09-18T15:01:00;15.50;99.90
41720;DHT22;27405;53.316;-6.294;2023-09-18T15:03:26;15.50;99.90
41720;DHT22;27405;53.316;-6.294;2023-09-18T15:05:52;15.60;99.90
41720;DHT22;27405;53.316;-6.294;2023-09-18T15:08:19;15.80;99.90
41720;DHT22;27405;53.316;-6.294;2023-09-18T15:10:47;15.90;99.90
41720;DHT22;27405;53.316;-6.294;2023-09-18T15:13:13;16.00;99.90
41720;DHT22;27405;53.316;-6.294;2023-09-18T15:15:42;16.10;99.90
41720;DHT22;27405;53.316;-6.294;2023-09-18T15:18:09;16.00;99.90
41720;DHT22;27405;53.316;-6.294;2023-09-18T15:20:34;16.00;99.90
41720;DHT22;27405;53.316;-6.294;2023-09-18T15:23:00;16.00;99.90
41720;DHT22;27405;53.316;-6.294;2023-09-18T15:25:26;16.00;99.90
41720;DHT22;27405;53.316;-6.294;2023-09-18T15:27:52;16.00;99.90
41720;DHT22;27405;53.316;-6.294;2023-09-18T15:30:18;16.00;99.90
41720;DHT22;27405;53.316;-6.294;2023-09-18T15:32:48;16.10;99.90
41720;DHT22;27405;53.316;-6.294;2023-09-18T15:35:19;16.20;99.90
41720;DHT22;27405;53.316;-6.294;2023-09-18T15:37:45;16.20;99.90
41720;DHT22;27405;53.316;-6.294;2023-09-18T15:40:11;16.30;99.90
41720;DHT22;27405;53.316;-6.294;2023-09-18T15:42:39;16.30;99.90
41720;DHT22;27405;53.316;-6.294;2023-09-18T15:45:08;16.30;99.90
41720;DHT22;27405;53.316;-6.294;2023-09-18T15:47:43;16.40;99.90
41720;DHT22;27405;53.316;-6.294;2023-09-18T15:50:12;16.30;99.90